Time;durP1;ratioP1;P1;durP2;ratioP2;P2;SDS_P1;SDS_P2;PMS_P1;PMS_P2;Temp;Humidity;BMP_temperature;BMP_pressure;BME280_temperature;BME280_humidity;BME280_pressure;Samples;Min_cycle;Max_cycle;Signal;HPM_P1;HPM_P2
2021/04/23 00:00:24;;;;;;;;;;;6.40;99.90;;;;;;5104530;28;19908;-72
2021/04/23 00:02:50;;;;;;;;;;;6.30;99.90;;;;;;5107203;28;19908;-70
2021/04/23 00:05:16;;;;;;;;;;;6.30;99.90;;;;;;5098182;28;19908;-72
2021/04/23 00:07:41;;;;;;;;;;;6.30;99.90;;;;;;5095722;28;19945;-71
2021/04/23 00:10:09;;;;;;;;;;;6.30;99.90;;;;;;5095930;28;19957;-71
2021/04/23 00:12:35;;;;;;;;;;;6.30;99.90;;;;;;5094136;28;19967;-72
2021/04/23 00:15:01;;;;;;;;;;;6.30;99.90;;;;;;5094276;28;20320;-72
2021/04/23 00:17:27;;;;;;;;;;;6.30;99.90;;;;;;5094018;28;19912;-71
2021/04/23 00:19:53;;;;;;;;;;;6.30;99.90;;;;;;5088021;28;20291;-73
2021/04/23 00:22:18;;;;;;;;;;;6.30;99.90;;;;;;5094351;28;19915;-72
2021/04/23 00:24:44;;;;;;;;;;;6.30;99.90;;;;;;5094500;28;19975;-71
2021/04/23 00:27:09;;;;;;;;;;;6.20;99.90;;;;;;5090530;28;19939;-71
2021/04/23 00:29:35;;;;;;;;;;;6.20;99.90;;;;;;5093718;28;19999;-72
2021/04/23 00:34:46;;;;;;;;;;;6.10;99.90;;;;;;5082234;28;19920;-72
2021/04/23 00:37:12;;;;;;;;;;;6.10;99.90;;;;;;5087084;28;20280;-72
2021/04/23 00:39:37;;;;;;;;;;;6.20;99.90;;;;;;5089144;28;19912;-72
2021/04/23 00:42:04;;;;;;;;;;;6.20;99.90;;;;;;5084975;28;19908;-72
2021/04/23 00:44:29;;;;;;;;;;;6.20;99.90;;;;;;5092666;28;20371;-72
2021/04/23 00:46:55;;;;;;;;;;;6.20;99.90;;;;;;5085775;28;19908;-71
2021/04/23 00:49:20;;;;;;;;;;;6.20;99.90;;;;;;5091315;28;19943;-71
2021/04/23 00:51:51;;;;;;;;;;;6.20;99.90;;;;;;5091698;28;19962;-71
2021/04/23 00:54:17;;;;;;;;;;;6.10;99.90;;;;;;5092204;28;20057;-71
2021/04/23 00:56:42;;;;;;;;;;;6.00;99.90;;;;;;5093502;28;19952;-72
2021/04/23 00:59:10;;;;;;;;;;;6.00;99.90;;;;;;5093002;28;19916;-72
2021/04/23 01:01:40;;;;;;;;;;;6.00;99.90;;;;;;5087520;28;19912;-72
2021/04/23 01:04:06;;;;;;;;;;;6.00;99.90;;;;;;5090669;28;20241;-71
2021/04/23 01:06:33;;;;;;;;;;;6.00;99.90;;;;;;5085242;28;19916;-71
2021/04/23 01:08:59;;;;;;;;;;;5.90;99.90;;;;;;5087935;28;19995;-71
2021/04/23 01:11:26;;;;;;;;;;;5.90;99.90;;;;;;5091375;28;19908;-71
2021/04/23 01:13:52;;;;;;;;;;;5.90;99.90;;;;;;5092801;28;19998;-71
2021/04/23 01:16:18;;;;;;;;;;;5.90;99.90;;;;;;5090333;28;19947;-72
2021/04/23 01:18:45;;;;;;;;;;;5.80;99.90;;;;;;5092835;28;19961;-71
2021/04/23 01:21:12;;;;;;;;;;;5.80;99.90;;;;;;5078538;28;19908;-71
2021/04/23 01:23:38;;;;;;;;;;;5.80;99.90;;;;;;5093042;28;19998;-72
2021/04/23 01:26:06;;;;;;;;;;;5.80;99.90;;;;;;5091844;28;20315;-72
2021/04/23 01:28:32;;;;;;;;;;;5.80;99.90;;;;;;5090699;28;19908;-72
2021/04/23 01:30:58;;;;;;;;;;;5.80;99.90;;;;;;5092094;28;19916;-72
2021/04/23 01:33:24;;;;;;;;;;;5.80;99.90;;;;;;5091268;28;19908;-71
2021/04/23 01:35:49;;;;;;;;;;;5.80;99.90;;;;;;5093043;28;20257;-71
2021/04/23 01:38:15;;;;;;;;;;;5.70;99.90;;;;;;5092279;28;19943;-73
2021/04/23 01:40:42;;;;;;;;;;;5.70;99.90;;;;;;5091441;28;19934;-71
2021/04/23 01:43:07;;;;;;;;;;;5.60;99.90;;;;;;5092548;28;19911;-71
2021/04/23 01:45:33;;;;;;;;;;;5.60;99.90;;;;;;5094783;28;19943;-71
2021/04/23 01:47:58;;;;;;;;;;;5.60;99.90;;;;;;5098719;28;19990;-71
2021/04/23 01:50:24;;;;;;;;;;;5.50;99.90;;;;;;5098421;28;19911;-71
2021/04/23 01:52:50;;;;;;;;;;;5.50;99.90;;;;;;5100421;28;19945;-70
2021/04/23 01:55:17;;;;;;;;;;;5.60;99.90;;;;;;5115620;28;19943;-72
2021/04/23 01:57:43;;;;;;;;;;;5.50;99.90;;;;;;5115384;28;19934;-73
2021/04/23 02:00:10;;;;;;;;;;;5.50;99.90;;;;;;5116209;28;19896;-69
2021/04/23 02:02:35;;;;;;;;;;;5.50;99.90;;;;;;5114124;28;19908;-72
2021/04/23 02:05:01;;;;;;;;;;;5.40;99.90;;;;;;5098391;28;19915;-71
2021/04/23 02:07:27;;;;;;;;;;;5.40;99.90;;;;;;5095546;28;20006;-72
2021/04/23 02:09:53;;;;;;;;;;;5.30;99.90;;;;;;5091812;28;19909;-71
2021/04/23 02:12:19;;;;;;;;;;;5.30;99.90;;;;;;5096068;28;19908;-71
2021/04/23 02:14:44;;;;;;;;;;;5.30;99.90;;;;;;5096082;28;19954;-71
2021/04/23 02:17:10;;;;;;;;;;;5.30;99.90;;;;;;5092060;28;19953;-71
2021/04/23 02:19:35;;;;;;;;;;;5.30;99.90;;;;;;5095733;28;19912;-71
2021/04/23 02:22:01;;;;;;;;;;;5.40;99.90;;;;;;5093513;28;20280;-71
2021/04/23 02:24:26;;;;;;;;;;;5.40;99.90;;;;;;5095901;28;20360;-71
2021/04/23 02:26:52;;;;;;;;;;;5.30;99.90;;;;;;5091875;28;19909;-72
2021/04/23 02:29:18;;;;;;;;;;;5.30;99.90;;;;;;5091165;28;19998;-72
2021/04/23 02:32:01;;;;;;;;;;;5.30;99.90;;;;;;5094530;28;20049;-72
2021/04/23 02:34:28;;;;;;;;;;;5.20;99.90;;;;;;5094984;28;19919;-71
2021/04/23 02:36:54;;;;;;;;;;;5.20;99.90;;;;;;5095487;28;20000;-71
2021/04/23 02:39:20;;;;;;;;;;;5.20;99.90;;;;;;5091557;28;19955;-72
2021/04/23 02:41:47;;;;;;;;;;;5.20;99.90;;;;;;5090655;28;19915;-72
2021/04/23 02:44:12;;;;;;;;;;;5.10;99.90;;;;;;5094040;28;19938;-72
2021/04/23 02:46:40;;;;;;;;;;;5.10;99.90;;;;;;5092654;28;20045;-72
2021/04/23 02:49:07;;;;;;;;;;;5.10;99.90;;;;;;5095240;28;19908;-72
2021/04/23 02:51:33;;;;;;;;;;;5.10;99.90;;;;;;5094931;28;19908;-72
2021/04/23 02:53:59;;;;;;;;;;;5.10;99.90;;;;;;5094661;28;19963;-72
2021/04/23 02:56:25;;;;;;;;;;;5.10;99.90;;;;;;5092253;28;19908;-72
2021/04/23 02:58:51;;;;;;;;;;;5.10;99.90;;;;;;5090978;28;19916;-72
2021/04/23 03:01:22;;;;;;;;;;;5.20;99.90;;;;;;5094358;28;20010;-72
2021/04/23 03:03:47;;;;;;;;;;;5.10;99.90;;;;;;5093806;28;19908;-72
2021/04/23 03:06:13;;;;;;;;;;;5.10;99.90;;;;;;5094557;28;19908;-72
2021/04/23 03:08:39;;;;;;;;;;;5.10;99.90;;;;;;5094476;28;19994;-72
2021/04/23 03:11:15;;;;;;;;;;;5.10;99.90;;;;;;5094228;28;20369;-72
2021/04/23 03:13:42;;;;;;;;;;;5.10;99.90;;;;;;5091825;28;19961;-72
2021/04/23 03:16:08;;;;;;;;;;;5.00;99.90;;;;;;5092836;28;19912;-72
2021/04/23 03:18:35;;;;;;;;;;;5.00;99.90;;;;;;5094389;28;19931;-72
2021/04/23 03:21:01;;;;;;;;;;;5.00;99.90;;;;;;5094504;28;20348;-72
2021/04/23 03:23:27;;;;;;;;;;;5.00;99.90;;;;;;5094781;28;19911;-72
2021/04/23 03:25:53;;;;;;;;;;;5.00;99.90;;;;;;5094441;28;20372;-72
2021/04/23 03:28:19;;;;;;;;;;;5.00;99.90;;;;;;5094649;28;19908;-72
2021/04/23 03:30:45;;;;;;;;;;;5.00;99.90;;;;;;5093950;28;19908;-72
2021/04/23 03:33:11;;;;;;;;;;;5.00;99.90;;;;;;5089091;28;19951;-72
2021/04/23 03:35:37;;;;;;;;;;;4.90;99.90;;;;;;5089402;28;19912;-72
2021/04/23 03:38:03;;;;;;;;;;;4.90;99.90;;;;;;5092530;28;19912;-72
2021/04/23 03:40:31;;;;;;;;;;;4.90;99.90;;;;;;5092381;28;19908;-72
2021/04/23 03:42:57;;;;;;;;;;;4.90;99.90;;;;;;5083920;28;19938;-72
2021/04/23 03:45:23;;;;;;;;;;;4.80;99.90;;;;;;5095173;28;19990;-72
2021/04/23 03:47:49;;;;;;;;;;;4.80;99.90;;;;;;5098532;28;19908;-72
2021/04/23 03:50:16;;;;;;;;;;;4.90;99.90;;;;;;5098578;28;19907;-72
2021/04/23 03:52:42;;;;;;;;;;;4.90;99.90;;;;;;5096926;28;19908;-72
2021/04/23 03:55:09;;;;;;;;;;;4.80;99.90;;;;;;5096543;28;19908;-72
2021/04/23 03:57:35;;;;;;;;;;;4.90;99.90;;;;;;5095239;28;20011;-72
2021/04/23 04:00:01;;;;;;;;;;;4.90;99.90;;;;;;5093467;28;20346;-72
2021/04/23 04:02:26;;;;;;;;;;;4.80;99.90;;;;;;5092660;28;20370;-72
2021/04/23 04:04:52;;;;;;;;;;;4.80;99.90;;;;;;5093581;28;19908;-72
2021/04/23 04:07:18;;;;;;;;;;;4.80;99.90;;;;;;5092006;28;19908;-72
2021/04/23 04:09:43;;;;;;;;;;;4.80;99.90;;;;;;5093394;28;19922;-72
2021/04/23 04:12:09;;;;;;;;;;;4.70;99.90;;;;;;5092405;28;19943;-73
2021/04/23 04:14:34;;;;;;;;;;;4.70;99.90;;;;;;5093668;28;19919;-72
2021/04/23 04:17:00;;;;;;;;;;;4.80;99.90;;;;;;5093301;28;19908;-72
2021/04/23 04:19:25;;;;;;;;;;;4.70;99.90;;;;;;5093384;28;19912;-72
2021/04/23 04:21:51;;;;;;;;;;;4.70;99.90;;;;;;5088829;28;19957;-72
2021/04/23 04:24:17;;;;;;;;;;;4.70;99.90;;;;;;5092225;28;19911;-73
2021/04/23 04:26:43;;;;;;;;;;;4.70;99.90;;;;;;5090344;28;20030;-72
2021/04/23 04:29:08;;;;;;;;;;;4.80;99.90;;;;;;5092447;28;20052;-72
2021/04/23 04:31:34;;;;;;;;;;;4.80;99.90;;;;;;5092205;28;19953;-72
2021/04/23 04:33:59;;;;;;;;;;;4.80;99.90;;;;;;5092704;28;19961;-72
2021/04/23 04:36:25;;;;;;;;;;;4.90;99.90;;;;;;5091203;28;19961;-72
2021/04/23 04:38:50;;;;;;;;;;;4.80;99.90;;;;;;5091167;28;19912;-72
2021/04/23 04:41:16;;;;;;;;;;;4.80;99.90;;;;;;5092515;28;19915;-72
2021/04/23 04:43:42;;;;;;;;;;;4.80;99.90;;;;;;5092675;28;19919;-72
2021/04/23 04:46:08;;;;;;;;;;;4.80;99.90;;;;;;5091037;28;19908;-72
2021/04/23 04:48:34;;;;;;;;;;;4.80;99.90;;;;;;5092049;28;20271;-72
2021/04/23 04:51:01;;;;;;;;;;;4.90;99.90;;;;;;5090845;28;19908;-72
2021/04/23 04:53:26;;;;;;;;;;;4.90;99.90;;;;;;5091363;28;19912;-71
2021/04/23 04:55:53;;;;;;;;;;;4.90;99.90;;;;;;5091544;28;19927;-72
2021/04/23 04:58:21;;;;;;;;;;;4.90;99.90;;;;;;5092052;28;19977;-72
2021/04/23 05:00:47;;;;;;;;;;;4.90;99.90;;;;;;5084113;28;19912;-72
2021/04/23 05:03:12;;;;;;;;;;;5.00;99.90;;;;;;5091683;28;19915;-72
2021/04/23 05:05:39;;;;;;;;;;;5.00;99.90;;;;;;5093095;28;19939;-71
2021/04/23 05:08:04;;;;;;;;;;;5.00;99.90;;;;;;5092495;28;19969;-72
2021/04/23 05:10:30;;;;;;;;;;;5.10;99.90;;;;;;5090446;28;20356;-72
2021/04/23 05:12:56;;;;;;;;;;;5.10;99.90;;;;;;5092314;28;19915;-72
2021/04/23 05:15:21;;;;;;;;;;;5.20;99.90;;;;;;5091851;28;19998;-72
2021/04/23 05:17:47;;;;;;;;;;;5.20;99.90;;;;;;5092553;28;19908;-72
2021/04/23 05:20:13;;;;;;;;;;;5.30;99.90;;;;;;5092552;28;19915;-72
2021/04/23 05:22:39;;;;;;;;;;;5.40;99.90;;;;;;5094047;28;19908;-73
2021/04/23 05:25:05;;;;;;;;;;;5.50;99.90;;;;;;5097328;28;19915;-72
2021/04/23 05:27:31;;;;;;;;;;;5.60;99.90;;;;;;5096997;28;19931;-71
2021/04/23 05:29:56;;;;;;;;;;;5.70;99.90;;;;;;5094684;28;19912;-71
2021/04/23 05:32:22;;;;;;;;;;;5.80;99.90;;;;;;5096299;28;19907;-72
2021/04/23 05:34:48;;;;;;;;;;;5.90;99.90;;;;;;5093000;28;19915;-72
2021/04/23 05:37:14;;;;;;;;;;;6.00;99.90;;;;;;5095315;28;19993;-72
2021/04/23 05:39:43;;;;;;;;;;;6.10;99.90;;;;;;5096409;28;19953;-72
2021/04/23 05:42:09;;;;;;;;;;;6.20;99.90;;;;;;5095479;28;19934;-71
2021/04/23 05:44:34;;;;;;;;;;;6.30;99.90;;;;;;5094658;28;19948;-72
2021/04/23 05:47:00;;;;;;;;;;;6.50;99.90;;;;;;5093575;28;19908;-71
2021/04/23 05:49:26;;;;;;;;;;;6.50;99.90;;;;;;5098473;28;19915;-72
2021/04/23 05:51:51;;;;;;;;;;;6.60;99.90;;;;;;5101294;28;19908;-72
2021/04/23 05:54:17;;;;;;;;;;;6.80;99.90;;;;;;5100159;28;19908;-72
2021/04/23 05:56:42;;;;;;;;;;;6.90;99.90;;;;;;5104548;28;19915;-72
2021/04/23 05:59:08;;;;;;;;;;;7.00;99.90;;;;;;5113943;28;20256;-71
2021/04/23 06:01:33;;;;;;;;;;;7.10;99.90;;;;;;5115009;28;20325;-71
2021/04/23 06:03:59;;;;;;;;;;;7.20;99.90;;;;;;5116673;28;19912;-70
2021/04/23 06:06:24;;;;;;;;;;;7.20;99.90;;;;;;5103270;28;19908;-70
2021/04/23 06:08:50;;;;;;;;;;;7.30;99.90;;;;;;5099549;28;19908;-70
2021/04/23 06:11:18;;;;;;;;;;;7.40;99.90;;;;;;5096429;28;20271;-71
2021/04/23 06:13:47;;;;;;;;;;;7.40;99.90;;;;;;5095231;28;19915;-72
2021/04/23 06:16:13;;;;;;;;;;;7.50;99.90;;;;;;5096669;28;19915;-72
2021/04/23 06:18:39;;;;;;;;;;;7.70;99.90;;;;;;5095123;28;20371;-72
2021/04/23 06:21:05;;;;;;;;;;;7.80;99.90;;;;;;5096512;28;19927;-70
2021/04/23 06:23:31;;;;;;;;;;;7.90;99.90;;;;;;5095978;28;19908;-72
2021/04/23 06:25:56;;;;;;;;;;;8.00;99.90;;;;;;5094723;28;19918;-72
2021/04/23 06:28:22;;;;;;;;;;;8.10;99.90;;;;;;5095454;28;19988;-72
2021/04/23 06:30:48;;;;;;;;;;;8.10;99.90;;;;;;5093931;28;19908;-72
2021/04/23 06:33:19;;;;;;;;;;;8.30;99.90;;;;;;5095770;28;20402;-72
2021/04/23 06:35:45;;;;;;;;;;;8.50;99.90;;;;;;5093848;28;19908;-72
2021/04/23 06:38:11;;;;;;;;;;;8.50;99.90;;;;;;5089633;28;19912;-73
2021/04/23 06:40:37;;;;;;;;;;;8.70;99.90;;;;;;5093101;28;20002;-72
2021/04/23 06:43:03;;;;;;;;;;;8.80;99.90;;;;;;5093207;28;20014;-73
2021/04/23 06:45:28;;;;;;;;;;;8.80;99.90;;;;;;5093101;28;19908;-72
2021/04/23 06:48:12;;;;;;;;;;;8.90;99.90;;;;;;5094624;28;19908;-72
2021/04/23 06:50:38;;;;;;;;;;;8.80;99.90;;;;;;5095480;28;19908;-72
2021/04/23 06:53:04;;;;;;;;;;;8.80;99.90;;;;;;5094804;28;19930;-71
2021/04/23 06:55:29;;;;;;;;;;;8.70;99.90;;;;;;5094432;28;20015;-72
2021/04/23 06:57:55;;;;;;;;;;;8.40;99.90;;;;;;5094347;28;19916;-71
2021/04/23 07:00:22;;;;;;;;;;;8.30;99.90;;;;;;5093896;28;19915;-72
2021/04/23 07:02:48;;;;;;;;;;;8.60;99.90;;;;;;5094516;28;19993;-71
2021/04/23 07:05:13;;;;;;;;;;;8.70;99.90;;;;;;5093392;28;19981;-72
2021/04/23 07:07:39;;;;;;;;;;;9.00;99.90;;;;;;5095430;28;20370;-72
2021/04/23 07:10:07;;;;;;;;;;;9.10;99.90;;;;;;5095325;28;20372;-72
2021/04/23 07:12:32;;;;;;;;;;;9.20;99.90;;;;;;5095091;28;19915;-72
2021/04/23 07:14:58;;;;;;;;;;;9.00;99.90;;;;;;5095418;28;20303;-72
2021/04/23 07:17:23;;;;;;;;;;;9.10;99.90;;;;;;5093230;28;19908;-71
2021/04/23 07:19:49;;;;;;;;;;;9.00;99.90;;;;;;5094631;28;19912;-71
2021/04/23 07:22:15;;;;;;;;;;;9.10;99.90;;;;;;5094658;28;19915;-72
2021/04/23 07:24:41;;;;;;;;;;;9.10;99.90;;;;;;5092036;28;19998;-73
2021/04/23 07:27:07;;;;;;;;;;;9.10;99.90;;;;;;5094483;28;19963;-73
2021/04/23 07:29:32;;;;;;;;;;;9.20;99.90;;;;;;5092387;28;20368;-73
2021/04/23 07:31:58;;;;;;;;;;;9.00;99.90;;;;;;5092056;28;19908;-71
2021/04/23 07:34:23;;;;;;;;;;;9.10;99.90;;;;;;5083673;28;19961;-73
2021/04/23 07:36:49;;;;;;;;;;;9.30;99.90;;;;;;5093816;28;19967;-73
2021/04/23 07:39:14;;;;;;;;;;;9.40;99.90;;;;;;5093690;28;19920;-72
2021/04/23 07:41:40;;;;;;;;;;;9.50;99.90;;;;;;5093880;28;20284;-72
2021/04/23 07:44:06;;;;;;;;;;;9.50;99.90;;;;;;5098023;28;20002;-70
2021/04/23 07:46:31;;;;;;;;;;;9.20;99.90;;;;;;5108097;28;19966;-70
2021/04/23 07:48:57;;;;;;;;;;;8.90;99.90;;;;;;5111728;28;19908;-71
2021/04/23 07:51:22;;;;;;;;;;;8.90;99.90;;;;;;5114520;28;19915;-72
2021/04/23 07:53:48;;;;;;;;;;;8.70;99.90;;;;;;5111629;28;19907;-72
2021/04/23 07:56:13;;;;;;;;;;;8.70;99.90;;;;;;5093882;28;19915;-72
2021/04/23 07:58:39;;;;;;;;;;;8.90;99.90;;;;;;5091638;28;19916;-73
2021/04/23 08:01:04;;;;;;;;;;;9.00;99.90;;;;;;5095883;28;19908;-75
2021/04/23 08:03:33;;;;;;;;;;;9.10;99.90;;;;;;5095259;28;19907;-70
2021/04/23 08:05:59;;;;;;;;;;;9.30;99.90;;;;;;5093218;28;19908;-73
2021/04/23 08:08:25;;;;;;;;;;;9.30;99.90;;;;;;5092273;28;19915;-73
2021/04/23 08:10:50;;;;;;;;;;;9.20;99.90;;;;;;5091721;28;20351;-73
2021/04/23 08:13:16;;;;;;;;;;;9.30;99.90;;;;;;5084833;28;20003;-72
2021/04/23 08:15:41;;;;;;;;;;;9.50;99.90;;;;;;5084447;28;19908;-72
2021/04/23 08:18:07;;;;;;;;;;;9.80;99.90;;;;;;5092383;28;19911;-72
2021/04/23 08:20:34;;;;;;;;;;;9.90;99.90;;;;;;5091393;28;19953;-72
2021/04/23 08:22:59;;;;;;;;;;;9.90;99.90;;;;;;5091734;28;20011;-73
2021/04/23 08:25:25;;;;;;;;;;;10.00;99.90;;;;;;5090294;28;20007;-73
2021/04/23 08:27:51;;;;;;;;;;;10.20;99.90;;;;;;5085137;28;21097;-73
2021/04/23 08:30:17;;;;;;;;;;;10.30;99.90;;;;;;5088950;28;19912;-71
2021/04/23 08:32:43;;;;;;;;;;;10.50;99.90;;;;;;5092157;28;20375;-71
2021/04/23 08:35:09;;;;;;;;;;;10.40;99.90;;;;;;5092285;28;19908;-72
2021/04/23 08:37:35;;;;;;;;;;;10.20;99.90;;;;;;5092164;28;19915;-73
2021/04/23 08:40:00;;;;;;;;;;;10.20;99.90;;;;;;5092544;28;20364;-74
2021/04/23 08:42:26;;;;;;;;;;;10.00;99.90;;;;;;5091599;28;19966;-73
2021/04/23 08:44:51;;;;;;;;;;;10.40;99.90;;;;;;5092610;28;19943;-72
2021/04/23 08:47:18;;;;;;;;;;;10.70;99.90;;;;;;5093463;28;19914;-72
2021/04/23 08:49:44;;;;;;;;;;;11.20;99.90;;;;;;5093380;28;19916;-72
2021/04/23 08:52:09;;;;;;;;;;;11.40;99.90;;;;;;5092776;28;19908;-73
2021/04/23 08:54:35;;;;;;;;;;;11.50;99.90;;;;;;5092565;28;20231;-72
2021/04/23 08:57:00;;;;;;;;;;;11.60;99.90;;;;;;5089611;28;19907;-72
2021/04/23 08:59:26;;;;;;;;;;;12.00;99.90;;;;;;5091438;28;19920;-72
2021/04/23 09:01:51;;;;;;;;;;;12.00;99.90;;;;;;5092228;28;20006;-73
2021/04/23 09:04:17;;;;;;;;;;;12.00;99.90;;;;;;5093430;28;19961;-72
2021/04/23 09:06:42;;;;;;;;;;;11.60;99.90;;;;;;5091651;28;19950;-71
2021/04/23 09:09:09;;;;;;;;;;;11.60;99.90;;;;;;5093454;28;19908;-74
2021/04/23 09:11:37;;;;;;;;;;;11.90;99.90;;;;;;5093850;28;19908;-71
2021/04/23 09:14:03;;;;;;;;;;;12.70;99.90;;;;;;5091635;28;19908;-73
2021/04/23 09:16:44;;;;;;;;;;;12.80;99.90;;;;;;5090332;28;20002;-69
2021/04/23 09:19:19;;;;;;;;;;;12.30;99.90;;;;;;5092171;28;20045;-71
2021/04/23 09:21:45;;;;;;;;;;;12.40;99.90;;;;;;5081317;28;19930;-72
2021/04/23 09:24:10;;;;;;;;;;;12.60;99.90;;;;;;5093568;28;19991;-73
2021/04/23 09:26:37;;;;;;;;;;;12.80;99.90;;;;;;5090336;28;20000;-73
2021/04/23 09:29:04;;;;;;;;;;;12.80;99.90;;;;;;5093721;28;19954;-73
2021/04/23 09:31:30;;;;;;;;;;;13.30;99.70;;;;;;5093536;28;19908;-73
2021/04/23 09:33:57;;;;;;;;;;;13.50;99.80;;;;;;5092087;28;19912;-72
2021/04/23 09:36:27;;;;;;;;;;;13.60;99.10;;;;;;5094018;28;19912;-72
2021/04/23 09:39:10;;;;;;;;;;;13.70;98.20;;;;;;5103187;28;19919;-72
2021/04/23 09:41:37;;;;;;;;;;;13.60;97.80;;;;;;5095685;28;19920;-73
2021/04/23 09:44:03;;;;;;;;;;;13.90;97.50;;;;;;5103414;28;19908;-73
2021/04/23 09:46:35;;;;;;;;;;;14.10;97.50;;;;;;5100873;28;19919;-72
2021/04/23 09:49:14;;;;;;;;;;;14.20;96.70;;;;;;5115633;28;19908;-74
2021/04/23 09:51:40;;;;;;;;;;;14.10;96.10;;;;;;5116557;28;19903;-73
2021/04/23 09:54:12;;;;;;;;;;;14.20;96.30;;;;;;5117707;28;19896;-72
2021/04/23 09:56:38;;;;;;;;;;;14.60;96.60;;;;;;5116588;28;19900;-72
2021/04/23 09:59:14;;;;;;;;;;;14.90;95.70;;;;;;5085506;28;20379;-73
2021/04/23 10:01:59;;;;;;;;;;;14.40;97.20;;;;;;5096944;28;19908;-73
2021/04/23 10:04:26;;;;;;;;;;;14.40;96.50;;;;;;5092472;28;19915;-73
2021/04/23 10:07:04;;;;;;;;;;;14.40;97.20;;;;;;5095310;28;20390;-73
2021/04/23 10:09:29;;;;;;;;;;;14.10;97.50;;;;;;5095855;28;19914;-72
2021/04/23 10:11:55;;;;;;;;;;;14.30;96.10;;;;;;5096457;28;20014;-73
2021/04/23 10:14:21;;;;;;;;;;;14.40;96.20;;;;;;5096833;28;19915;-72
2021/04/23 10:16:46;;;;;;;;;;;14.50;95.80;;;;;;5094617;28;19912;-73
2021/04/23 10:19:12;;;;;;;;;;;14.50;96.00;;;;;;5094627;28;19912;-73
2021/04/23 10:21:37;;;;;;;;;;;14.90;96.10;;;;;;5095157;28;19915;-72
2021/04/23 10:24:03;;;;;;;;;;;14.80;96.50;;;;;;5092772;28;19907;-74
2021/04/23 10:26:29;;;;;;;;;;;15.00;96.10;;;;;;5094416;28;19908;-72
2021/04/23 10:28:55;;;;;;;;;;;15.10;94.70;;;;;;5095616;28;20279;-72
2021/04/23 10:31:21;;;;;;;;;;;15.10;94.80;;;;;;5095874;28;19908;-73
2021/04/23 10:33:47;;;;;;;;;;;14.90;94.30;;;;;;5095650;28;19973;-72
2021/04/23 10:36:12;;;;;;;;;;;14.70;95.00;;;;;;5095988;28;20356;-73
2021/04/23 10:38:40;;;;;;;;;;;14.80;94.50;;;;;;5095791;28;19926;-73
2021/04/23 10:41:07;;;;;;;;;;;14.70;95.00;;;;;;5094478;28;19931;-73
2021/04/23 10:43:33;;;;;;;;;;;14.20;96.40;;;;;;5095849;28;19915;-72
2021/04/23 10:46:04;;;;;;;;;;;13.90;96.90;;;;;;5095600;28;19908;-72
2021/04/23 10:48:37;;;;;;;;;;;13.80;96.40;;;;;;5094734;28;19908;-72
2021/04/23 10:51:06;;;;;;;;;;;14.00;96.10;;;;;;5094349;28;19954;-72
2021/04/23 10:53:43;;;;;;;;;;;13.90;95.40;;;;;;5094907;28;19908;-72
2021/04/23 10:56:22;;;;;;;;;;;13.90;95.60;;;;;;5095726;28;19908;-71
2021/04/23 10:58:48;;;;;;;;;;;13.40;97.40;;;;;;5102795;28;19916;-73
2021/04/23 11:01:14;;;;;;;;;;;13.10;97.40;;;;;;5094383;28;19915;-73
2021/04/23 11:03:40;;;;;;;;;;;13.20;97.20;;;;;;5094157;28;19908;-72
2021/04/23 11:06:06;;;;;;;;;;;13.00;97.70;;;;;;5093674;28;20357;-72
2021/04/23 11:08:33;;;;;;;;;;;12.90;97.90;;;;;;5093765;28;19931;-73
2021/04/23 11:11:02;;;;;;;;;;;13.00;98.00;;;;;;5094611;28;20409;-72
2021/04/23 11:13:28;;;;;;;;;;;13.10;97.70;;;;;;5093417;28;20249;-72
2021/04/23 11:16:12;;;;;;;;;;;13.10;97.90;;;;;;5093373;28;19908;-73
2021/04/23 11:18:37;;;;;;;;;;;13.10;98.30;;;;;;5094127;28;19948;-72
2021/04/23 11:21:22;;;;;;;;;;;13.20;97.90;;;;;;5093958;28;20338;-72
2021/04/23 11:24:06;;;;;;;;;;;13.20;98.50;;;;;;5088541;28;19907;-72
2021/04/23 11:26:50;;;;;;;;;;;13.20;98.20;;;;;;5095435;28;19915;-73
2021/04/23 11:29:15;;;;;;;;;;;13.50;97.60;;;;;;5094620;28;19908;-72
2021/04/23 11:32:00;;;;;;;;;;;13.60;97.90;;;;;;5094513;28;19908;-73
2021/04/23 11:34:30;;;;;;;;;;;13.80;97.60;;;;;;5094430;28;19908;-73
2021/04/23 11:36:59;;;;;;;;;;;14.00;97.20;;;;;;5095016;28;19908;-73
2021/04/23 11:39:28;;;;;;;;;;;13.70;97.90;;;;;;5094090;28;19923;-72
2021/04/23 11:42:09;;;;;;;;;;;13.60;97.10;;;;;;5095205;28;19922;-73
2021/04/23 11:44:46;;;;;;;;;;;13.70;97.30;;;;;;5089179;28;19980;-73
2021/04/23 11:47:13;;;;;;;;;;;13.70;97.00;;;;;;5091644;28;19951;-73
2021/04/23 11:49:38;;;;;;;;;;;13.80;96.90;;;;;;5087139;28;21297;-71
2021/04/23 11:52:04;;;;;;;;;;;13.90;97.00;;;;;;5094943;28;19998;-72
2021/04/23 11:54:32;;;;;;;;;;;13.90;97.40;;;;;;5094347;28;19953;-72
2021/04/23 11:56:59;;;;;;;;;;;14.10;97.10;;;;;;5096710;28;20002;-72
2021/04/23 11:59:25;;;;;;;;;;;14.20;97.60;;;;;;5095704;28;20009;-72
2021/04/23 12:01:50;;;;;;;;;;;14.10;97.10;;;;;;5112296;28;19908;-73
2021/04/23 12:04:36;;;;;;;;;;;14.20;98.00;;;;;;5113323;28;19918;-73
2021/04/23 12:07:01;;;;;;;;;;;14.40;97.10;;;;;;5112156;28;19950;-73
2021/04/23 12:09:27;;;;;;;;;;;13.90;97.90;;;;;;5113880;28;19896;-73
2021/04/23 12:12:02;;;;;;;;;;;13.90;97.90;;;;;;5111551;28;19965;-73
2021/04/23 12:14:44;;;;;;;;;;;13.90;98.90;;;;;;5107341;28;20002;-74
2021/04/23 12:17:10;;;;;;;;;;;13.90;98.70;;;;;;5098531;28;19999;-73
2021/04/23 12:19:36;;;;;;;;;;;14.10;98.60;;;;;;5095570;28;20397;-73
2021/04/23 12:22:01;;;;;;;;;;;14.30;98.30;;;;;;5096728;28;19969;-73
2021/04/23 12:24:27;;;;;;;;;;;14.40;97.80;;;;;;5095398;28;20257;-73
2021/04/23 12:26:52;;;;;;;;;;;14.40;97.70;;;;;;5095369;28;19908;-72
2021/04/23 12:29:21;;;;;;;;;;;14.40;98.60;;;;;;5094472;28;19915;-72
2021/04/23 12:31:47;;;;;;;;;;;14.30;97.80;;;;;;5094904;28;20364;-73
2021/04/23 12:34:15;;;;;;;;;;;14.30;98.40;;;;;;5092976;28;19908;-73
2021/04/23 12:36:45;;;;;;;;;;;14.40;97.50;;;;;;5093018;28;19944;-73
2021/04/23 12:39:15;;;;;;;;;;;14.50;97.30;;;;;;5094093;28;19934;-73
2021/04/23 12:41:45;;;;;;;;;;;14.50;97.70;;;;;;5094411;28;19956;-72
2021/04/23 12:44:16;;;;;;;;;;;14.50;98.10;;;;;;5093891;28;20301;-73
2021/04/23 12:46:44;;;;;;;;;;;14.80;97.90;;;;;;5093002;28;20253;-73
2021/04/23 12:49:16;;;;;;;;;;;14.80;97.70;;;;;;5092508;28;19908;-72
2021/04/23 12:51:44;;;;;;;;;;;14.60;98.10;;;;;;5094197;28;19908;-73
2021/04/23 12:54:10;;;;;;;;;;;14.50;98.80;;;;;;5094257;28;20291;-73
2021/04/23 12:56:36;;;;;;;;;;;14.50;97.60;;;;;;5092877;28;19919;-72
2021/04/23 12:59:02;;;;;;;;;;;14.40;97.40;;;;;;5093621;28;19916;-72
2021/04/23 13:01:27;;;;;;;;;;;14.50;97.70;;;;;;5093284;28;19915;-73
2021/04/23 13:04:06;;;;;;;;;;;14.60;97.30;;;;;;5093751;28;19908;-73
2021/04/23 13:06:32;;;;;;;;;;;14.70;97.00;;;;;;5093618;28;19915;-73
2021/04/23 13:09:02;;;;;;;;;;;15.00;96.30;;;;;;5093617;28;19920;-74
2021/04/23 13:11:27;;;;;;;;;;;15.20;95.90;;;;;;5093814;28;20001;-73
2021/04/23 13:13:53;;;;;;;;;;;15.20;96.10;;;;;;5093858;28;19951;-73
2021/04/23 13:16:19;;;;;;;;;;;15.10;96.50;;;;;;5092847;28;19915;-74
2021/04/23 13:18:45;;;;;;;;;;;15.20;95.70;;;;;;5093889;28;19912;-73
2021/04/23 13:21:11;;;;;;;;;;;15.20;96.70;;;;;;5092440;28;20346;-73
2021/04/23 13:23:40;;;;;;;;;;;15.00;96.40;;;;;;5092706;28;19962;-73
2021/04/23 13:26:09;;;;;;;;;;;15.20;96.80;;;;;;5092640;28;20330;-73
2021/04/23 13:28:44;;;;;;;;;;;15.40;95.70;;;;;;5093940;28;19959;-73
2021/04/23 13:31:17;;;;;;;;;;;15.30;96.00;;;;;;5094183;28;19961;-73
2021/04/23 13:33:43;;;;;;;;;;;15.10;96.50;;;;;;5093420;28;19994;-73
2021/04/23 13:36:13;;;;;;;;;;;15.10;95.70;;;;;;5092686;28;19908;-73
2021/04/23 13:38:52;;;;;;;;;;;15.00;96.20;;;;;;5093646;28;19912;-73
2021/04/23 13:41:21;;;;;;;;;;;15.10;95.80;;;;;;5094066;28;19998;-73
2021/04/23 13:44:02;;;;;;;;;;;15.00;96.40;;;;;;5097520;28;19915;-74
2021/04/23 13:46:32;;;;;;;;;;;15.00;95.70;;;;;;5096162;28;19947;-73
2021/04/23 13:48:59;;;;;;;;;;;15.20;95.70;;;;;;5095737;28;19908;-73
2021/04/23 13:51:29;;;;;;;;;;;15.30;96.10;;;;;;5097644;28;19912;-73
2021/04/23 13:53:56;;;;;;;;;;;15.30;96.70;;;;;;5097369;28;19908;-73
2021/04/23 13:56:23;;;;;;;;;;;15.30;96.80;;;;;;5096296;28;20402;-73
2021/04/23 13:58:51;;;;;;;;;;;15.40;96.50;;;;;;5097054;28;19916;-73
2021/04/23 14:01:35;;;;;;;;;;;15.40;96.40;;;;;;5097175;28;19915;-73
2021/04/23 14:04:03;;;;;;;;;;;15.40;95.80;;;;;;5096524;28;19911;-73
2021/04/23 14:06:28;;;;;;;;;;;15.50;96.10;;;;;;5095693;28;19915;-73
2021/04/23 14:08:54;;;;;;;;;;;15.40;96.00;;;;;;5095933;28;19908;-73
2021/04/23 14:11:19;;;;;;;;;;;15.50;95.70;;;;;;5096676;28;20008;-73
2021/04/23 14:13:52;;;;;;;;;;;15.40;96.30;;;;;;5096163;28;19974;-73
2021/04/23 14:16:18;;;;;;;;;;;15.40;95.80;;;;;;5096905;28;19908;-74
2021/04/23 14:18:43;;;;;;;;;;;15.60;95.70;;;;;;5096952;28;19919;-73
2021/04/23 14:21:09;;;;;;;;;;;15.70;95.00;;;;;;5096192;28;20287;-73
2021/04/23 14:23:34;;;;;;;;;;;15.40;95.60;;;;;;5095993;28;19907;-72
2021/04/23 14:26:00;;;;;;;;;;;15.20;96.20;;;;;;5096882;28;20344;-73